createdAt,value
2022-08-03T00:05:00.870Z,22
2022-08-03T00:20:00.861Z,21.7
2022-08-03T00:35:00.849Z,21.8
2022-08-03T00:50:00.858Z,21.8
2022-08-03T01:05:00.845Z,21.8
2022-08-03T01:20:00.863Z,21.6
2022-08-03T01:35:00.854Z,21.5
2022-08-03T01:50:00.849Z,21.4
2022-08-03T02:05:00.849Z,21.1
2022-08-03T02:20:00.846Z,20.9
2022-08-03T02:35:00.858Z,20.8
2022-08-03T02:50:00.891Z,20.9
2022-08-03T03:05:53.898Z,20.6
2022-08-03T03:20:00.867Z,20.6
2022-08-03T03:35:00.854Z,20.5
2022-08-03T03:50:00.861Z,20.3
2022-08-03T04:05:00.852Z,20.1
2022-08-03T04:20:00.851Z,20
2022-08-03T04:35:00.847Z,19.9
2022-08-03T04:50:00.846Z,19.8
2022-08-03T05:05:00.868Z,19.8
2022-08-03T05:20:00.858Z,20.2
2022-08-03T05:35:00.862Z,20.4
2022-08-03T05:50:00.866Z,20.7
2022-08-03T06:05:00.846Z,21.1
2022-08-03T06:20:00.868Z,21.7
2022-08-03T06:35:00.848Z,22.1
2022-08-03T06:50:13.093Z,22.4
2022-08-03T07:05:00.887Z,22.8
2022-08-03T07:20:00.861Z,22.9
2022-08-03T07:35:01.498Z,23.4
2022-08-03T07:50:00.863Z,23.9
2022-08-03T08:05:05.083Z,24.1
2022-08-03T08:20:00.858Z,24.7
2022-08-03T08:35:00.845Z,25.2
2022-08-03T08:50:09.529Z,25.6
2022-08-03T09:05:04.135Z,25.9
2022-08-03T09:20:03.403Z,26.4
2022-08-03T09:35:00.866Z,26.6
2022-08-03T09:50:00.871Z,26.6
2022-08-03T10:05:00.845Z,26.9
2022-08-03T10:20:00.861Z,27.5
2022-08-03T10:35:04.023Z,27.4
2022-08-03T10:50:00.862Z,27.7
2022-08-03T11:05:00.867Z,27.9
2022-08-03T11:20:00.859Z,28.4
2022-08-03T11:35:00.872Z,28.5
2022-08-03T11:50:00.849Z,28.5
2022-08-03T12:05:00.852Z,28.6
2022-08-03T12:20:00.859Z,29.2
2022-08-03T12:35:01.480Z,29.4
2022-08-03T12:50:00.848Z,29.1
2022-08-03T13:05:00.850Z,29.9
2022-08-03T13:20:00.847Z,29.7
2022-08-03T13:35:00.853Z,30.2
2022-08-03T13:50:02.629Z,30.1
2022-08-03T14:05:00.864Z,31
2022-08-03T14:20:00.868Z,33.2
2022-08-03T14:35:00.860Z,32.4
2022-08-03T14:50:35.447Z,33.7
2022-08-03T15:05:00.849Z,33.9
2022-08-03T15:20:19.621Z,34.2
2022-08-03T15:35:00.852Z,34
2022-08-03T15:50:00.847Z,34.2
2022-08-03T16:05:00.893Z,34.6
2022-08-03T16:20:00.875Z,33.9
2022-08-03T16:35:00.865Z,33.5
2022-08-03T16:50:00.918Z,33.6
2022-08-03T17:05:00.892Z,33.5
2022-08-03T17:20:00.843Z,34.6
2022-08-03T17:35:00.856Z,33.8
2022-08-03T17:50:00.847Z,33.3
2022-08-03T18:05:00.928Z,33.6
2022-08-03T18:20:04.950Z,33.2
2022-08-03T18:35:00.847Z,32.5
2022-08-03T18:50:00.860Z,31.9
2022-08-03T19:05:00.850Z,31.1
2022-08-03T19:20:01.388Z,30.8
2022-08-03T19:35:00.848Z,30.4
2022-08-03T19:50:05.493Z,29.8
2022-08-03T20:05:00.859Z,29.5
2022-08-03T20:20:00.849Z,29
2022-08-03T20:35:00.852Z,29.1
2022-08-03T20:50:00.866Z,28.6
2022-08-03T21:05:02.795Z,27.9
2022-08-03T21:20:00.858Z,27.7
2022-08-03T21:35:00.848Z,27.4
2022-08-03T21:50:05.993Z,27
2022-08-03T22:05:03.787Z,26.8
2022-08-03T22:20:00.864Z,26.4
2022-08-03T22:35:00.845Z,26.4
2022-08-03T22:50:31.110Z,26.1
2022-08-03T23:05:00.880Z,26.4
2022-08-03T23:20:00.859Z,25.6
2022-08-03T23:35:00.856Z,25.8
2022-08-03T23:50:00.849Z,25.2
